Latest Weather Observations for Mandurah

IDW60901

Issued at 7:15 am WST Friday 29 August 2014 (issued every 10 minutes, with the page automatically refreshed every 10 minutes)

About weather observations | Map of Perth area stations | Latest observations for Perth area | Other Formats
Station Details ID: 009977 Name: MANDURAH Lat: -32.52 Lon: 115.71 Height: 3.0 m
Data from the previous 72 hours. | See also: Recent months at Mandurah
Date/Time
WST
Tmp

°C
App
Tmp
°C
Dew
Point
°C
Rel
Hum
%
Delta-T

°C
Wind Press
QNH
hPa
Press
MSL
hPa
Rain
since
9 am
mm
Dir
 
Spd
km/h
Gust
km/h
Spd
kts
Gust
kts
29/07:00am 18.0 14.4 17.7 98 0.2 WNW 33 44 18 24 1011.5 1011.5 3.0
29/06:30am 17.1 11.7 17.1 100 0.0 NW 41 54 22 29 1011.6 1011.6 3.0
29/06:13am 18.9 14.2 17.7 93 0.7 NW 39 61 21 33 1011.2 1011.2 0.8
29/06:00am 18.9 15.1 18.1 95 0.5 NNW 35 43 19 23 1011.0 1011.0 0.2
29/05:30am 19.2 15.1 17.3 89 1.2 NNW 35 43 19 23 1011.3 1011.3 0.0
29/05:00am 19.1 15.3 17.1 88 1.2 NNW 33 41 18 22 1011.3 1011.3 0.0
29/04:30am 19.0 15.1 17.0 88 1.2 NNW 33 46 18 25 1011.2 1011.2 0.0
29/04:00am 19.0 15.9 17.5 91 0.9 NNW 30 39 16 21 1011.3 1011.3 0.0
29/03:30am 19.1 16.0 17.4 90 1.0 NNW 30 37 16 20 1011.5 1011.5 0.0
29/03:00am 19.0 16.0 17.8 93 0.7 NNW 30 41 16 22 1011.9 1011.9 0.0
29/02:30am 19.0 16.2 18.2 95 0.5 NNW 30 35 16 19 1011.8 1011.8 0.0
29/02:00am 19.1 16.5 17.9 93 0.7 NNW 28 33 15 18 1012.3 1012.3 0.0
29/01:30am 19.1 16.2 17.9 93 0.7 NNW 30 37 16 20 1012.5 1012.5 0.0
29/01:00am 19.1 16.5 17.9 93 0.7 NNW 28 37 15 20 1012.7 1012.7 0.0
29/12:30am 19.0 16.8 17.8 93 0.7 NNW 26 32 14 17 1012.8 1012.8 0.0
29/12:00am 18.9 16.7 17.9 94 0.6 NNW 26 33 14 18 1013.0 1013.0 0.0
 
Date/Time
WST
Tmp

°C
App
Tmp
°C
Dew
Point
°C
Rel
Hum
%
Delta-T

°C
Wind Press
QNH
hPa
Press
MSL
hPa
Rain
since
9 am
mm
Dir
 
Spd
km/h
Gust
km/h
Spd
kts
Gust
kts
28/11:30pm 18.9 17.1 17.9 94 0.6 NNW 24 30 13 16 1013.3 1013.3 0.0
28/11:00pm 19.0 16.7 17.7 92 0.8 NW 26 32 14 17 1013.8 1013.8 0.0
28/10:30pm 19.0 17.1 17.7 92 0.8 NW 24 32 13 17 1014.0 1014.0 0.0
28/10:00pm 19.0 17.0 17.5 91 0.9 NNW 24 30 13 16 1014.0 1014.0 0.0
28/09:30pm 19.1 17.0 17.2 89 1.2 NNW 24 32 13 17 1014.4 1014.4 0.0
28/09:00pm 19.1 17.1 17.4 90 1.0 NNW 24 28 13 15 1014.5 1014.5 0.0
28/08:30pm 18.9 17.4 17.7 93 0.7 NNW 22 26 12 14 1014.6 1014.6 0.0
28/08:00pm 19.0 17.5 17.8 93 0.7 NNW 22 26 12 14 1014.5 1014.5 0.0
28/07:30pm 19.0 17.6 18.0 94 0.6 NNW 22 28 12 15 1014.4 1014.4 0.0
28/07:00pm 19.0 17.9 18.7 98 0.2 NNW 22 26 12 14 1014.3 1014.3 0.0
28/06:30pm 19.0 18.1 19.0 100 0.0 NNW 22 26 12 14 1014.2 1014.2 0.0
28/06:00pm 19.1 18.6 19.1 100 0.0 NNW 20 24 11 13 1014.2 1014.2 0.0
28/05:30pm 19.2 18.8 19.0 99 0.1 NNW 19 22 10 12 1014.1 1014.1 0.0
28/05:00pm 19.4 18.7 18.6 95 0.5 NNW 20 24 11 13 1013.8 1013.8 0.0
28/04:30pm 19.4 18.5 18.1 92 0.8 NNW 20 24 11 13 1013.8 1013.8 0.0
28/04:00pm 19.3 17.8 17.6 90 1.0 NNW 22 26 12 14 1013.5 1013.5 0.0
28/03:30pm 19.8 17.3 17.0 84 1.7 NNW 26 30 14 16 1013.8 1013.8 0.0
28/03:00pm 20.0 17.6 16.4 80 2.2 NNW 24 30 13 16 1013.8 1013.8 0.0
28/02:30pm 20.0 17.2 15.4 75 2.7 NNW 24 28 13 15 1014.3 1014.3 0.0
28/02:00pm 19.4 18.7 17.4 88 1.2 N 17 19 9 10 1014.4 1014.4 0.0
28/01:30pm 19.7 18.4 16.7 83 1.8 N 19 22 10 12 1014.5 1014.5 0.0
28/01:00pm 19.1 17.0 16.1 83 1.8 N 22 26 12 14 1014.7 1014.7 0.0
28/12:30pm 19.2 17.1 16.1 82 1.8 N 22 26 12 14 1014.9 1014.9 0.0
28/12:00pm 19.6 17.4 15.9 79 2.2 N 22 28 12 15 1015.4 1015.4 0.0
28/11:30am 19.6 17.2 15.5 77 2.4 N 22 28 12 15 1015.4 1015.4 0.0
28/11:00am 19.0 16.6 14.5 75 2.6 N 20 28 11 15 1015.5 1015.5 0.0
28/10:30am 18.1 14.6 13.4 74 2.7 N 24 30 13 16 1015.8 1015.8 0.0
28/10:00am 17.8 14.7 13.3 75 2.5 N 22 28 12 15 1016.0 1016.0 0.0
28/09:30am 17.4 13.1 12.1 71 2.9 N 26 33 14 18 1016.0 1016.0 0.0
28/09:00am 16.8 12.7 11.5 71 2.9 N 24 28 13 15 1015.9 1015.9 0.0
28/08:30am 16.2 12.4 11.2 72 2.7 N 22 26 12 14 1016.0 1016.0 0.0
28/08:00am 15.8 11.4 10.3 70 2.9 N 24 28 13 15 1015.8 1015.8 0.0
28/07:30am 15.8 11.0 10.3 70 2.9 N 26 30 14 16 1015.7 1015.7 0.0
28/07:00am 15.7 10.4 9.8 68 3.1 N 28 32 15 17 1015.5 1015.5 0.0
28/06:30am 15.9 9.8 9.8 67 3.2 N 32 37 17 20 1015.2 1015.2 0.0
28/06:00am 15.9 10.5 9.6 66 3.3 N 28 33 15 18 1015.1 1015.1 0.0
28/05:30am 15.8 12.0 9.9 68 3.1 N 20 26 11 14 1015.2 1015.2 0.0
28/05:00am 15.5 12.7 10.1 70 2.8 NNE 15 19 8 10 1015.1 1015.1 0.0
28/04:30am 15.8 12.1 9.5 66 3.3 NNE 19 22 10 12 1015.2 1015.2 0.0
28/04:00am 15.4 12.9 9.7 69 3.0 NNE 13 17 7 9 1015.0 1015.0 0.0
28/03:30am 15.4 13.0 10.0 70 2.8 NNE 13 17 7 9 1015.4 1015.4 0.0
28/03:00am 15.4 13.1 10.4 72 2.6 NNE 13 17 7 9 1015.8 1015.8 0.0
28/02:30am 15.3 12.6 10.3 72 2.6 NE 15 19 8 10 1015.9 1015.9 0.0
28/02:00am 14.7 13.1 10.3 75 2.3 NE 9 13 5 7 1016.5 1016.5 0.0
28/01:30am 14.6 13.4 10.2 75 2.3 ENE 7 13 4 7 1016.8 1016.8 0.0
28/01:00am 14.9 13.2 11.1 78 2.0 NNE 11 13 6 7 1017.1 1017.1 0.0
28/12:30am 14.9 13.6 11.1 78 2.0 NNE 9 11 5 6 1017.7 1017.7 0.0
28/12:00am 15.0 13.0 11.4 79 1.9 NNE 13 19 7 10 1017.6 1017.6 0.0
 
Date/Time
WST
Tmp

°C
App
Tmp
°C
Dew
Point
°C
Rel
Hum
%
Delta-T

°C
Wind Press
QNH
hPa
Press
MSL
hPa
Rain
since
9 am
mm
Dir
 
Spd
km/h
Gust
km/h
Spd
kts
Gust
kts
27/11:30pm 15.2 13.2 11.4 78 2.0 NNE 13 19 7 10 1017.8 1017.8 0.0
27/11:00pm 15.3 13.7 11.7 79 1.9 NNE 11 15 6 8 1018.0 1018.0 0.0
27/10:30pm 15.5 13.9 11.7 78 2.1 NNE 11 17 6 9 1018.6 1018.6 0.0
27/10:00pm 15.4 13.7 11.2 76 2.2 NNE 11 15 6 8 1019.0 1019.0 0.0
27/09:30pm 15.9 14.8 11.9 77 2.2 NNE 9 13 5 7 1019.1 1019.1 0.0
27/09:00pm 15.9 14.3 11.7 76 2.3 NE 11 13 6 7 1019.0 1019.0 0.0
27/08:30pm 16.0 14.8 11.6 75 2.4 NE 9 13 5 7 1019.1 1019.1 0.0
27/08:00pm 16.6 15.4 11.5 72 2.8 NE 9 11 5 6 1019.3 1019.3 0.0
27/07:30pm 17.4 16.8 11.7 69 3.1 N 6 7 3 4 1019.5 1019.5 0.0
27/07:00pm 17.5 16.9 11.8 69 3.1 NNW 6 7 3 4 1019.0 1019.0 0.0
27/06:30pm 17.4 16.1 11.2 67 3.4 WNW 9 11 5 6 1019.2 1019.2 0.0
27/06:00pm 17.9 16.7 11.5 66 3.5 W 9 13 5 7 1019.3 1019.3 0.0
27/05:30pm 17.9 15.8 11.0 64 3.7 W 13 20 7 11 1019.6 1019.6 0.0
27/05:00pm 18.1 15.3 11.4 65 3.6 W 17 20 9 11 1019.3 1019.3 0.0
27/04:30pm 18.1 14.7 10.7 62 4.0 WNW 19 24 10 13 1019.0 1019.0 0.0
27/04:00pm 18.7 15.3 10.5 59 4.4 WNW 19 24 10 13 1019.2 1019.2 0.0
27/03:30pm 18.9 14.2 10.5 58 4.5 W 26 37 14 20 1019.3 1019.3 0.0
27/03:00pm 18.6 16.2 13.7 73 2.8 NW 19 24 10 13 1019.0 1019.0 0.0
27/02:30pm 18.9 16.5 13.7 72 3.0 NW 19 22 10 12 1018.9 1018.9 0.0
27/02:00pm 18.9 17.5 14.4 75 2.6 NNW 15 20 8 11 1018.4 1018.4 0.0
27/01:30pm 18.4 17.4 14.5 78 2.3 NNW 13 17 7 9 1018.9 1018.9 0.0
27/01:00pm 18.5 17.6 13.8 74 2.7 NNW 11 13 6 7 1019.2 1019.2 0.0
27/12:30pm 18.3 17.6 13.2 72 2.9 N 9 13 5 7 1019.8 1019.8 0.0
27/12:00pm 17.9 16.8 13.0 73 2.7 NNW 11 13 6 7 1020.4 1020.4 0.0
27/11:30am 17.8 17.4 13.1 74 2.6 NNW 7 11 4 6 1020.9 1020.9 0.0
27/11:00am 17.1 16.3 12.8 76 2.4 NNW 9 11 5 6 1021.3 1021.3 0.0
27/10:30am 17.2 16.6 12.3 73 2.7 N 7 9 4 5 1021.4 1021.4 0.0
27/10:00am 16.4 15.4 12.4 77 2.2 N 9 11 5 6 1021.7 1021.7 0.0
27/09:30am 15.8 14.5 12.4 80 1.9 NNE 11 13 6 7 1021.8 1021.8 0.0
27/09:00am 15.4 13.3 12.5 83 1.6 NE 15 19 8 10 1021.5 1021.5 0.0
27/08:30am 13.6 12.0 11.7 88 1.0 ENE 11 19 6 10 1021.5 1021.5 0.0
27/08:00am 13.3 12.0 11.4 88 1.0 ENE 9 13 5 7 1021.6 1021.6 0.0
27/07:30am 12.6 11.5 10.8 89 0.9 E 7 13 4 7 1021.2 1021.2 0.0
27/07:00am 12.6 11.9 10.1 85 1.3 E 4 9 2 5 1021.0 1021.0 0.0
27/06:30am 12.9 12.2 9.9 82 1.5 ESE 4 7 2 4 1021.0 1021.0 0.0
27/06:00am 12.8 12.0 9.6 81 1.6 SE 4 6 2 3 1020.9 1020.9 0.0
27/05:30am 12.9 10.9 8.6 75 2.1 ESE 9 11 5 6 1020.7 1020.7 0.0
27/05:00am 13.3 11.6 8.4 72 2.4 SE 7 9 4 5 1020.8 1020.8 0.0
27/04:30am 13.4 11.9 8.5 72 2.4 SSE 6 7 3 4 1020.8 1020.8 0.0
27/04:00am 13.3 11.7 8.0 70 2.6 SSE 6 9 3 5 1020.9 1020.9 0.0
27/03:30am 13.4 11.9 8.3 71 2.5 SSE 6 9 3 5 1021.2 1021.2 0.0
27/03:00am 13.3 11.8 8.6 73 2.3 SSE 6 9 3 5 1021.4 1021.4 0.0
27/02:30am 13.6 12.5 10.8 83 1.5 SE 7 9 4 5 1021.3 1021.3 0.0
27/02:00am 13.6 12.7 10.8 83 1.5 SSE 6 9 3 5 1021.7 1021.7 0.0
27/01:30am 13.8 12.7 9.8 77 2.1 SSE 6 9 3 5 1022.0 1022.0 0.0
27/01:00am 13.8 12.4 9.0 73 2.4 SSE 6 9 3 5 1022.4 1022.4 0.0
27/12:30am 14.0 12.3 8.4 69 2.8 SSE 7 11 4 6 1022.5 1022.5 0.0
27/12:00am 14.2 12.6 8.6 69 2.8 SSE 7 11 4 6 1022.5 1022.5 0.0
 
Date/Time
WST
Tmp

°C
App
Tmp
°C
Dew
Point
°C
Rel
Hum
%
Delta-T

°C
Wind Press
QNH
hPa
Press
MSL
hPa
Rain
since
9 am
mm
Dir
 
Spd
km/h
Gust
km/h
Spd
kts
Gust
kts
26/11:30pm 14.4 12.3 8.4 67 3.0 SSE 9 13 5 7 1022.7 1022.7 0.0
26/11:00pm 14.4 12.7 8.4 67 3.0 SSE 7 9 4 5 1022.9 1022.9 0.0
26/10:30pm 14.3 12.6 8.5 68 2.9 SSE 7 11 4 6 1023.2 1023.2 0.0
26/10:00pm 14.2 12.6 8.8 70 2.7 S 7 11 4 6 1023.3 1023.3 0.0
26/09:30pm 14.2 13.1 8.4 68 2.9 S 4 6 2 3 1023.6 1023.6 0.0
26/09:00pm 15.0 13.5 8.5 65 3.3 S 6 9 3 5 1023.4 1023.4 0.0
26/08:30pm 15.6 13.9 8.4 62 3.6 SSE 7 11 4 6 1023.2 1023.2 0.0
26/08:00pm 15.6 14.0 7.9 60 3.8 S 6 9 3 5 1023.5 1023.5 0.0
26/07:30pm 15.8 13.8 8.5 62 3.7 S 9 15 5 8 1023.5 1023.5 0.0
26/07:00pm 15.6 14.1 9.1 65 3.3 S 7 13 4 7 1023.3 1023.3 0.0
26/06:30pm 16.0 14.1 9.0 63 3.6 S 9 15 5 8 1023.0 1023.0 0.0
26/06:00pm 16.5 14.3 9.2 62 3.8 S 11 17 6 9 1022.6 1022.6 0.0
26/05:30pm 16.9 14.5 8.8 59 4.2 SSW 11 17 6 9 1022.4 1022.4 0.0
26/05:00pm 17.6 15.2 8.7 56 4.6 S 11 17 6 9 1022.3 1022.3 0.0
26/04:30pm 18.1 16.2 9.2 56 4.6 S 9 15 5 8 1022.3 1022.3 0.0
26/04:00pm 18.3 16.3 8.8 54 4.9 S 9 15 5 8 1022.3 1022.3 0.0
26/03:30pm 18.7 17.1 8.7 52 5.2 SSE 7 11 4 6 1022.2 1022.2 0.0
26/03:00pm 18.6 16.9 8.3 51 5.3 SSE 7 13 4 7 1022.3 1022.3 0.0
26/02:30pm 18.4 16.5 9.2 55 4.8 S 9 17 5 9 1022.3 1022.3 0.0
26/02:00pm 18.3 15.9 8.8 54 4.9 S 11 20 6 11 1022.4 1022.4 0.0
26/01:30pm 18.0 16.1 9.1 56 4.6 S 9 15 5 8 1022.7 1022.7 0.0
26/01:00pm 18.4 16.4 10.0 58 4.4 SSE 11 17 6 9 1023.0 1023.0 0.0
26/12:30pm 17.7 14.8 9.8 60 4.2 SSE 15 20 8 11 1023.4 1023.4 0.0
26/12:00pm 17.8 14.9 9.7 59 4.2 SSE 15 22 8 12 1023.7 1023.7 0.0
26/11:30am 17.6 15.3 10.5 63 3.8 SSE 13 20 7 11 1023.8 1023.8 0.0
26/11:00am 16.7 14.2 11.2 70 2.9 S 15 22 8 12 1023.8 1023.8 0.0
26/10:30am 15.6 12.2 11.2 75 2.4 SSE 20 30 11 16 1023.8 1023.8 0.0
26/10:00am 15.0 13.5 14.2 95 0.4 SSE 15 24 8 13 1023.8 1023.8 0.0
26/09:30am 16.2 14.5 13.7 85 1.4 SSE 15 26 8 14 1023.6 1023.6 0.0
26/09:00am 15.3 14.3 14.5 95 0.5 SSE 13 17 7 9 1023.5 1023.5 0.2
26/08:30am 15.0 14.2 15.0 100 0.0 S 13 20 7 11 1023.2 1023.2 0.2
26/08:00am 15.1 13.5 14.9 99 0.1 S 17 24 9 13 1022.6 1022.6 0.2
26/07:30am 14.9 13.3 14.9 100 0.0 S 17 24 9 13 1022.1 1022.1 0.2

Latest Capital City Observations: Canberra | Sydney | Melbourne | Brisbane | Adelaide | Perth | Hobart | Darwin

Other Formats:

Comma delimited format used in spreadsheet applications
http://www.bom.gov.au/fwo/IDW60901/IDW60901.94605.axf

JavaScript Object Notation format (JSON) in row-major order
http://www.bom.gov.au/fwo/IDW60901/IDW60901.94605.json